Terminal Aerodrome Forecast
Issued by NWS

Current Version | Previous Version | Text Only | Print | Product List | Glossary On
Versions: 1 2 3 4 5 6 7 8 9 10 11 12 13 14 15 16 17 18 19 20 21 22 23 24 25 26 27 28 29 30 31 32
000
FTUS45 KCYS 272320
TAFAIA
TAF
KAIA 272320Z 2800/2824 13008KT P6SM SCT070
     FM281200 12012KT 6SM -RA SCT007 OVC015
     FM281500 12015KT 3/4SM -RA OVC007=

USA.gov is the U.S. government's official web portal to all federal, state and local government web resources and services.